IBE843 KJAC-KSLC
Flight info
| Callsign | IBE843 |
|---|---|
| Flight time | N/A |
| Altitude | 22000 |
| Route | ALPIN5 KICNE LHO CARTR1 |
| Aircraft | A346/H-SDE2E3FGHIJ3J4J5M1RWXY/LB1D1 |
Departure
| Time | 2026-05-07 09:48 |
|---|---|
| Airport | Jackson Hole Airport (KJAC) |
Arrival
| Time | N/A |
|---|---|
| Airport | Salt Lake City International Airport (KSLC) |
| Time | Latitude | Longitude | Altitude | Speed | Heading |
|---|---|---|---|---|---|
| 2026-05-07 09:37 | 43.60343 | -110.73741 | 6425 ft | 0 kts | 109° |
| 2026-05-07 09:42 | 43.60348 | -110.73763 | 6430 ft | 4 kts | 99° |
| 2026-05-07 09:42 | 43.60348 | -110.73790 | 6428 ft | 4 kts | 65° |
| 2026-05-07 09:42 | 43.60336 | -110.73808 | 6425 ft | 4 kts | 27° |
| 2026-05-07 09:42 | 43.60311 | -110.73821 | 6425 ft | 4 kts | 18° |
| 2026-05-07 09:43 | 43.60299 | -110.73826 | 6425 ft | 0 kts | 19° |
| 2026-05-07 09:46 | 43.60300 | -110.73826 | 6425 ft | 2 kts | 19° |
| 2026-05-07 09:47 | 43.60421 | -110.73766 | 6427 ft | 26 kts | 19° |
| 2026-05-07 09:47 | 43.61522 | -110.73390 | 6426 ft | 0 kts | 199° |
| 2026-05-07 09:47 | 43.61274 | -110.73510 | 6426 ft | 80 kts | 200° |
| 2026-05-07 09:47 | 43.60425 | -110.73926 | 6425 ft | 172 kts | 200° |
| 2026-05-07 09:48 | 43.59180 | -110.74492 | 7112 ft | 193 kts | 201° |
| 2026-05-07 09:48 | 43.58122 | -110.75517 | 8343 ft | 189 kts | 237° |
| 2026-05-07 09:48 | 43.57744 | -110.76629 | 9087 ft | 195 kts | 250° |
| 2026-05-07 09:48 | 43.57175 | -110.78403 | 10142 ft | 213 kts | 233° |
| 2026-05-07 09:49 | 43.55897 | -110.79609 | 11039 ft | 237 kts | 209° |
| 2026-05-07 09:49 | 43.54287 | -110.80495 | 11913 ft | 261 kts | 205° |
| 2026-05-07 09:49 | 43.52515 | -110.81389 | 12843 ft | 281 kts | 206° |
| 2026-05-07 09:49 | 43.50665 | -110.82491 | 13794 ft | 297 kts | 211° |
| 2026-05-07 09:50 | 43.48744 | -110.83765 | 14623 ft | 315 kts | 212° |
| 2026-05-07 09:50 | 43.46737 | -110.85112 | 15348 ft | 334 kts | 212° |
| 2026-05-07 09:50 | 43.44575 | -110.86549 | 16074 ft | 354 kts | 211° |
| 2026-05-07 09:50 | 43.42289 | -110.88055 | 16756 ft | 374 kts | 211° |
| 2026-05-07 09:51 | 43.39868 | -110.89635 | 17411 ft | 394 kts | 211° |
| 2026-05-07 09:51 | 43.37322 | -110.91287 | 18013 ft | 413 kts | 210° |
| 2026-05-07 09:51 | 43.34686 | -110.92990 | 18834 ft | 424 kts | 210° |
| 2026-05-07 09:51 | 43.32035 | -110.94696 | 19757 ft | 429 kts | 210° |
| 2026-05-07 09:52 | 43.29271 | -110.96472 | 20720 ft | 435 kts | 210° |
| 2026-05-07 09:52 | 43.26532 | -110.98232 | 21454 ft | 444 kts | 210° |
| 2026-05-07 09:52 | 43.23725 | -111.00035 | 21935 ft | 447 kts | 210° |
| 2026-05-07 09:52 | 43.20903 | -111.01844 | 22073 ft | 448 kts | 210° |
| 2026-05-07 09:53 | 43.16853 | -111.04437 | 22077 ft | 449 kts | 210° |
| 2026-05-07 09:53 | 43.11145 | -111.08089 | 22073 ft | 449 kts | 210° |
| 2026-05-07 09:53 | 43.05472 | -111.11713 | 22074 ft | 449 kts | 210° |
| 2026-05-07 09:53 | 42.99805 | -111.15324 | 22050 ft | 451 kts | 211° |
| 2026-05-07 09:54 | 42.94107 | -111.18950 | 22064 ft | 453 kts | 211° |
| 2026-05-07 09:54 | 42.88313 | -111.22636 | 22101 ft | 453 kts | 211° |
| 2026-05-07 09:54 | 42.82580 | -111.26271 | 22107 ft | 453 kts | 211° |
| 2026-05-07 09:54 | 42.76859 | -111.29889 | 22096 ft | 454 kts | 211° |
| 2026-05-07 09:55 | 42.71137 | -111.33502 | 22088 ft | 454 kts | 211° |
| 2026-05-07 09:55 | 42.65408 | -111.37111 | 22088 ft | 454 kts | 211° |
| 2026-05-07 09:55 | 42.59723 | -111.40685 | 22072 ft | 454 kts | 210° |
| 2026-05-07 09:55 | 42.53943 | -111.44312 | 22055 ft | 455 kts | 210° |
| 2026-05-07 09:56 | 42.48159 | -111.47934 | 22064 ft | 455 kts | 210° |
| 2026-05-07 09:56 | 42.42396 | -111.51534 | 22068 ft | 455 kts | 210° |
| 2026-05-07 09:56 | 42.36616 | -111.55138 | 22079 ft | 455 kts | 210° |
| 2026-05-07 09:56 | 42.30858 | -111.58724 | 22069 ft | 456 kts | 210° |
| 2026-05-07 09:57 | 42.25030 | -111.62343 | 22078 ft | 456 kts | 210° |
| 2026-05-07 09:57 | 42.19275 | -111.65907 | 22078 ft | 456 kts | 210° |
| 2026-05-07 09:57 | 42.13392 | -111.69545 | 22076 ft | 457 kts | 210° |
| 2026-05-07 09:57 | 42.07565 | -111.73143 | 22102 ft | 457 kts | 210° |
| 2026-05-07 09:58 | 42.01744 | -111.76725 | 22098 ft | 456 kts | 210° |
| 2026-05-07 09:58 | 41.95923 | -111.80301 | 22097 ft | 456 kts | 210° |
| 2026-05-07 09:58 | 41.90105 | -111.83869 | 22119 ft | 457 kts | 210° |
| 2026-05-07 09:58 | 41.84297 | -111.87427 | 22132 ft | 458 kts | 210° |
| 2026-05-07 09:59 | 41.78580 | -111.90921 | 22136 ft | 458 kts | 210° |
| 2026-05-07 09:59 | 41.72753 | -111.94474 | 22136 ft | 458 kts | 210° |
| 2026-05-07 09:59 | 41.66830 | -111.98079 | 22125 ft | 458 kts | 210° |
| 2026-05-07 09:59 | 41.60870 | -112.01699 | 22147 ft | 458 kts | 210° |
| 2026-05-07 10:00 | 41.54784 | -112.04390 | 22135 ft | 469 kts | 192° |